sensor_id;sensor_type;location;lat;lon;timestamp;temperature;humidity
11140;DHT22;5624;49.388;11.350;2023-11-19T00:00:25;4.10;99.90
11140;DHT22;5624;49.388;11.350;2023-11-19T00:02:51;4.10;99.90
11140;DHT22;5624;49.388;11.350;2023-11-19T00:05:16;4.10;99.90
11140;DHT22;5624;49.388;11.350;2023-11-19T00:07:42;4.10;99.90
11140;DHT22;5624;49.388;11.350;2023-11-19T00:10:09;4.10;99.90
11140;DHT22;5624;49.388;11.350;2023-11-19T00:12:42;4.10;99.90
11140;DHT22;5624;49.388;11.350;2023-11-19T00:15:08;4.20;99.90
11140;DHT22;5624;49.388;11.350;2023-11-19T00:17:38;4.20;99.90
11140;DHT22;5624;49.388;11.350;2023-11-19T00:20:06;4.20;99.90
11140;DHT22;5624;49.388;11.350;2023-11-19T00:22:32;4.20;99.90
11140;DHT22;5624;49.388;11.350;2023-11-19T00:24:58;4.20;99.90
11140;DHT22;5624;49.388;11.350;2023-11-19T00:27:25;4.10;99.90
11140;DHT22;5624;49.388;11.350;2023-11-19T00:29:51;4.10;99.90
11140;DHT22;5624;49.388;11.350;2023-11-19T00:32:16;4.20;99.90
11140;DHT22;5624;49.388;11.350;2023-11-19T00:34:45;4.20;99.90
11140;DHT22;5624;49.388;11.350;2023-11-19T00:37:13;4.30;99.90
11140;DHT22;5624;49.388;11.350;2023-11-19T00:39:39;4.20;99.90
11140;DHT22;5624;49.388;11.350;2023-11-19T00:42:04;4.20;99.90
11140;DHT22;5624;49.388;11.350;2023-11-19T00:44:30;4.30;99.90
11140;DHT22;5624;49.388;11.350;2023-11-19T00:46:56;4.30;99.90
11140;DHT22;5624;49.388;11.350;2023-11-19T00:49:22;4.30;99.90
11140;DHT22;5624;49.388;11.350;2023-11-19T00:51:47;4.30;99.90
11140;DHT22;5624;49.388;11.350;2023-11-19T00:54:13;4.30;99.90
11140;DHT22;5624;49.388;11.350;2023-11-19T00:56:38;4.30;99.90
11140;DHT22;5624;49.388;11.350;2023-11-19T00:59:05;4.30;99.90
11140;DHT22;5624;49.388;11.350;2023-11-19T01:01:30;4.30;99.90
11140;DHT22;5624;49.388;11.350;2023-11-19T01:03:56;4.30;99.90
11140;DHT22;5624;49.388;11.350;2023-11-19T01:08:54;4.30;99.90
11140;DHT22;5624;49.388;11.350;2023-11-19T01:11:22;4.30;99.90
11140;DHT22;5624;49.388;11.350;2023-11-19T01:13:49;4.40;99.90
11140;DHT22;5624;49.388;11.350;2023-11-19T01:16:15;4.40;99.90
11140;DHT22;5624;49.388;11.350;2023-11-19T01:18:40;4.40;99.90
11140;DHT22;5624;49.388;11.350;2023-11-19T01:21:06;4.40;99.90
11140;DHT22;5624;49.388;11.350;2023-11-19T01:23:32;4.40;99.90
11140;DHT22;5624;49.388;11.350;2023-11-19T01:25:58;4.40;99.90
11140;DHT22;5624;49.388;11.350;2023-11-19T01:28:23;4.40;99.90
11140;DHT22;5624;49.388;11.350;2023-11-19T01:30:52;4.40;99.90
11140;DHT22;5624;49.388;11.350;2023-11-19T01:33:18;4.50;99.90
11140;DHT22;5624;49.388;11.350;2023-11-19T01:35:43;4.40;99.90
11140;DHT22;5624;49.388;11.350;2023-11-19T01:38:09;4.40;99.90
11140;DHT22;5624;49.388;11.350;2023-11-19T01:40:35;4.40;99.90
11140;DHT22;5624;49.388;11.350;2023-11-19T01:43:02;4.40;99.90
11140;DHT22;5624;49.388;11.350;2023-11-19T01:45:29;4.40;99.90
11140;DHT22;5624;49.388;11.350;2023-11-19T01:48:00;4.50;99.90
11140;DHT22;5624;49.388;11.350;2023-11-19T01:50:28;4.50;99.90
11140;DHT22;5624;49.388;11.350;2023-11-19T01:52:54;4.50;99.90
11140;DHT22;5624;49.388;11.350;2023-11-19T01:55:21;4.50;99.90
11140;DHT22;5624;49.388;11.350;2023-11-19T01:57:48;4.50;99.90
11140;DHT22;5624;49.388;11.350;2023-11-19T02:00:15;4.60;99.90
11140;DHT22;5624;49.388;11.350;2023-11-19T02:02:41;4.50;99.90
11140;DHT22;5624;49.388;11.350;2023-11-19T02:05:09;4.50;99.90
11140;DHT22;5624;49.388;11.350;2023-11-19T02:07:34;4.50;99.90
11140;DHT22;5624;49.388;11.350;2023-11-19T02:10:00;4.50;99.90
11140;DHT22;5624;49.388;11.350;2023-11-19T02:12:28;4.50;99.90
11140;DHT22;5624;49.388;11.350;2023-11-19T02:14:54;4.50;99.90
11140;DHT22;5624;49.388;11.350;2023-11-19T02:17:30;4.50;99.90
11140;DHT22;5624;49.388;11.350;2023-11-19T02:20:00;4.50;99.90
11140;DHT22;5624;49.388;11.350;2023-11-19T02:22:26;4.50;99.90
11140;DHT22;5624;49.388;11.350;2023-11-19T02:25:02;4.50;99.90
11140;DHT22;5624;49.388;11.350;2023-11-19T02:27:51;4.50;99.90
11140;DHT22;5624;49.388;11.350;2023-11-19T02:30:21;4.60;99.90
11140;DHT22;5624;49.388;11.350;2023-11-19T02:32:46;4.60;99.90
11140;DHT22;5624;49.388;11.350;2023-11-19T02:35:13;4.60;99.90
11140;DHT22;5624;49.388;11.350;2023-11-19T02:37:38;4.70;99.90
11140;DHT22;5624;49.388;11.350;2023-11-19T02:40:05;4.70;99.90
11140;DHT22;5624;49.388;11.350;2023-11-19T02:42:31;4.70;99.90
11140;DHT22;5624;49.388;11.350;2023-11-19T02:44:57;4.70;99.90
11140;DHT22;5624;49.388;11.350;2023-11-19T02:47:22;4.70;99.90
11140;DHT22;5624;49.388;11.350;2023-11-19T02:49:49;4.70;99.90
11140;DHT22;5624;49.388;11.350;2023-11-19T02:52:15;4.80;99.90
11140;DHT22;5624;49.388;11.350;2023-11-19T02:54:41;4.70;99.90
11140;DHT22;5624;49.388;11.350;2023-11-19T02:57:07;4.70;99.90
11140;DHT22;5624;49.388;11.350;2023-11-19T02:59:38;4.70;99.90
11140;DHT22;5624;49.388;11.350;2023-11-19T03:02:08;4.70;99.90
11140;DHT22;5624;49.388;11.350;2023-11-19T03:04:39;4.70;99.90
11140;DHT22;5624;49.388;11.350;2023-11-19T03:07:06;4.70;99.90
11140;DHT22;5624;49.388;11.350;2023-11-19T03:09:32;4.60;99.90
11140;DHT22;5624;49.388;11.350;2023-11-19T03:11:59;4.60;99.90
11140;DHT22;5624;49.388;11.350;2023-11-19T03:14:24;4.60;99.90
11140;DHT22;5624;49.388;11.350;2023-11-19T03:16:50;4.70;99.90
11140;DHT22;5624;49.388;11.350;2023-11-19T03:19:16;4.70;99.90
11140;DHT22;5624;49.388;11.350;2023-11-19T03:21:41;4.70;99.90
11140;DHT22;5624;49.388;11.350;2023-11-19T03:24:07;4.70;99.90
11140;DHT22;5624;49.388;11.350;2023-11-19T03:26:34;4.60;99.90
11140;DHT22;5624;49.388;11.350;2023-11-19T03:28:59;4.60;99.90
11140;DHT22;5624;49.388;11.350;2023-11-19T03:31:25;4.70;99.90
11140;DHT22;5624;49.388;11.350;2023-11-19T03:33:51;4.60;99.90
11140;DHT22;5624;49.388;11.350;2023-11-19T03:36:17;4.70;99.90
11140;DHT22;5624;49.388;11.350;2023-11-19T03:38:43;4.70;99.90
11140;DHT22;5624;49.388;11.350;2023-11-19T03:41:12;4.70;99.90
11140;DHT22;5624;49.388;11.350;2023-11-19T03:43:38;4.70;99.90
11140;DHT22;5624;49.388;11.350;2023-11-19T03:46:04;4.70;99.90
11140;DHT22;5624;49.388;11.350;2023-11-19T03:48:31;4.60;99.90
11140;DHT22;5624;49.388;11.350;2023-11-19T03:50:56;4.70;99.90
11140;DHT22;5624;49.388;11.350;2023-11-19T03:53:22;4.70;99.90
11140;DHT22;5624;49.388;11.350;2023-11-19T03:55:48;4.70;99.90
11140;DHT22;5624;49.388;11.350;2023-11-19T03:58:15;4.80;99.90
11140;DHT22;5624;49.388;11.350;2023-11-19T04:00:40;4.80;99.90
11140;DHT22;5624;49.388;11.350;2023-11-19T04:03:06;4.80;99.90
11140;DHT22;5624;49.388;11.350;2023-11-19T04:05:31;4.80;99.90
11140;DHT22;5624;49.388;11.350;2023-11-19T04:07:57;4.80;99.90
11140;DHT22;5624;49.388;11.350;2023-11-19T04:10:22;4.80;99.90
11140;DHT22;5624;49.388;11.350;2023-11-19T04:12:48;4.80;99.90
11140;DHT22;5624;49.388;11.350;2023-11-19T04:15:14;4.80;99.90
11140;DHT22;5624;49.388;11.350;2023-11-19T04:17:40;4.80;99.90
11140;DHT22;5624;49.388;11.350;2023-11-19T04:20:06;4.80;99.90
11140;DHT22;5624;49.388;11.350;2023-11-19T04:22:36;4.80;99.90
11140;DHT22;5624;49.388;11.350;2023-11-19T04:25:01;4.90;99.90
11140;DHT22;5624;49.388;11.350;2023-11-19T04:27:27;4.90;99.90
11140;DHT22;5624;49.388;11.350;2023-11-19T04:29:52;4.90;99.90
11140;DHT22;5624;49.388;11.350;2023-11-19T04:32:18;4.90;99.90
11140;DHT22;5624;49.388;11.350;2023-11-19T04:34:44;4.90;99.90
11140;DHT22;5624;49.388;11.350;2023-11-19T04:37:10;5.00;99.90
11140;DHT22;5624;49.388;11.350;2023-11-19T04:39:35;5.00;99.90
11140;DHT22;5624;49.388;11.350;2023-11-19T04:42:02;5.00;99.90
11140;DHT22;5624;49.388;11.350;2023-11-19T04:44:28;5.10;99.90
11140;DHT22;5624;49.388;11.350;2023-11-19T04:46:54;5.10;99.90
11140;DHT22;5624;49.388;11.350;2023-11-19T04:49:20;5.10;99.90
11140;DHT22;5624;49.388;11.350;2023-11-19T04:51:46;5.20;99.90
11140;DHT22;5624;49.388;11.350;2023-11-19T04:54:16;5.30;99.90
11140;DHT22;5624;49.388;11.350;2023-11-19T04:56:45;5.30;99.90
11140;DHT22;5624;49.388;11.350;2023-11-19T04:59:10;5.30;99.90
11140;DHT22;5624;49.388;11.350;2023-11-19T05:01:36;5.40;99.90
11140;DHT22;5624;49.388;11.350;2023-11-19T05:04:02;5.50;99.90
11140;DHT22;5624;49.388;11.350;2023-11-19T05:06:31;5.50;99.90
11140;DHT22;5624;49.388;11.350;2023-11-19T05:08:58;5.60;99.90
11140;DHT22;5624;49.388;11.350;2023-11-19T05:11:26;5.60;99.90
11140;DHT22;5624;49.388;11.350;2023-11-19T05:13:54;5.70;99.90
11140;DHT22;5624;49.388;11.350;2023-11-19T05:16:19;5.70;99.90
11140;DHT22;5624;49.388;11.350;2023-11-19T05:18:46;5.70;99.90
11140;DHT22;5624;49.388;11.350;2023-11-19T05:21:12;5.80;99.90
11140;DHT22;5624;49.388;11.350;2023-11-19T05:23:37;5.80;99.90
11140;DHT22;5624;49.388;11.350;2023-11-19T05:26:04;5.90;99.90
11140;DHT22;5624;49.388;11.350;2023-11-19T05:28:30;5.90;99.90
11140;DHT22;5624;49.388;11.350;2023-11-19T05:30:56;6.00;99.90
11140;DHT22;5624;49.388;11.350;2023-11-19T05:33:21;6.00;99.90
11140;DHT22;5624;49.388;11.350;2023-11-19T05:35:47;6.00;99.90
11140;DHT22;5624;49.388;11.350;2023-11-19T05:38:12;6.00;99.90
11140;DHT22;5624;49.388;11.350;2023-11-19T05:40:38;6.10;99.90
11140;DHT22;5624;49.388;11.350;2023-11-19T05:43:04;6.10;99.90
11140;DHT22;5624;49.388;11.350;2023-11-19T05:45:31;6.20;99.90
11140;DHT22;5624;49.388;11.350;2023-11-19T05:47:57;6.20;99.90
11140;DHT22;5624;49.388;11.350;2023-11-19T05:50:23;6.20;99.90
11140;DHT22;5624;49.388;11.350;2023-11-19T05:52:49;6.30;99.90
11140;DHT22;5624;49.388;11.350;2023-11-19T05:55:15;6.30;99.90
11140;DHT22;5624;49.388;11.350;2023-11-19T05:57:40;6.40;99.90
11140;DHT22;5624;49.388;11.350;2023-11-19T06:00:07;6.40;99.90
11140;DHT22;5624;49.388;11.350;2023-11-19T06:02:34;6.50;99.90
11140;DHT22;5624;49.388;11.350;2023-11-19T06:05:00;6.40;99.90
11140;DHT22;5624;49.388;11.350;2023-11-19T06:07:26;6.50;99.90
11140;DHT22;5624;49.388;11.350;2023-11-19T06:09:52;6.50;99.90
11140;DHT22;5624;49.388;11.350;2023-11-19T06:12:17;6.60;99.90
11140;DHT22;5624;49.388;11.350;2023-11-19T06:14:43;6.60;99.90
11140;DHT22;5624;49.388;11.350;2023-11-19T06:17:08;6.70;99.90
11140;DHT22;5624;49.388;11.350;2023-11-19T06:19:36;6.60;99.90
11140;DHT22;5624;49.388;11.350;2023-11-19T06:22:03;6.70;99.90
11140;DHT22;5624;49.388;11.350;2023-11-19T06:24:28;6.70;99.90
11140;DHT22;5624;49.388;11.350;2023-11-19T06:26:54;6.70;99.90
11140;DHT22;5624;49.388;11.350;2023-11-19T06:29:19;6.80;99.90
11140;DHT22;5624;49.388;11.350;2023-11-19T06:31:45;6.90;99.90
11140;DHT22;5624;49.388;11.350;2023-11-19T06:34:14;6.90;99.90
11140;DHT22;5624;49.388;11.350;2023-11-19T06:36:39;6.90;99.90
11140;DHT22;5624;49.388;11.350;2023-11-19T06:39:05;7.00;99.90
11140;DHT22;5624;49.388;11.350;2023-11-19T06:41:31;7.00;99.90
11140;DHT22;5624;49.388;11.350;2023-11-19T06:43:56;7.10;99.90
11140;DHT22;5624;49.388;11.350;2023-11-19T06:46:22;7.10;99.90
11140;DHT22;5624;49.388;11.350;2023-11-19T06:48:47;7.10;99.90
11140;DHT22;5624;49.388;11.350;2023-11-19T06:51:13;7.20;99.90
11140;DHT22;5624;49.388;11.350;2023-11-19T06:53:39;7.20;99.90
11140;DHT22;5624;49.388;11.350;2023-11-19T06:56:16;7.20;99.90
11140;DHT22;5624;49.388;11.350;2023-11-19T06:58:42;7.30;99.90
11140;DHT22;5624;49.388;11.350;2023-11-19T07:01:08;7.30;99.90
11140;DHT22;5624;49.388;11.350;2023-11-19T07:03:35;7.30;99.90
11140;DHT22;5624;49.388;11.350;2023-11-19T07:06:00;7.40;99.90
11140;DHT22;5624;49.388;11.350;2023-11-19T07:08:25;7.40;99.90
11140;DHT22;5624;49.388;11.350;2023-11-19T07:10:52;7.40;99.90
11140;DHT22;5624;49.388;11.350;2023-11-19T07:13:18;7.50;99.90
11140;DHT22;5624;49.388;11.350;2023-11-19T07:15:44;7.50;99.90
11140;DHT22;5624;49.388;11.350;2023-11-19T07:18:10;7.60;99.90
11140;DHT22;5624;49.388;11.350;2023-11-19T07:20:37;7.60;99.90
11140;DHT22;5624;49.388;11.350;2023-11-19T07:23:03;7.60;99.90
11140;DHT22;5624;49.388;11.350;2023-11-19T07:25:29;7.70;99.90
11140;DHT22;5624;49.388;11.350;2023-11-19T07:27:54;7.70;99.90
11140;DHT22;5624;49.388;11.350;2023-11-19T07:30:20;7.80;99.90
11140;DHT22;5624;49.388;11.350;2023-11-19T07:32:46;7.80;99.90
11140;DHT22;5624;49.388;11.350;2023-11-19T07:35:11;7.90;99.90
11140;DHT22;5624;49.388;11.350;2023-11-19T07:37:37;7.90;99.90
11140;DHT22;5624;49.388;11.350;2023-11-19T07:40:03;7.90;99.90
11140;DHT22;5624;49.388;11.350;2023-11-19T07:42:28;7.90;99.90
11140;DHT22;5624;49.388;11.350;2023-11-19T07:44:54;8.00;99.90
11140;DHT22;5624;49.388;11.350;2023-11-19T07:47:21;8.10;99.90
11140;DHT22;5624;49.388;11.350;2023-11-19T07:49:49;8.10;99.90
11140;DHT22;5624;49.388;11.350;2023-11-19T07:52:15;8.10;99.90
11140;DHT22;5624;49.388;11.350;2023-11-19T07:54:41;8.20;99.90
11140;DHT22;5624;49.388;11.350;2023-11-19T07:57:07;8.30;99.90
11140;DHT22;5624;49.388;11.350;2023-11-19T07:59:32;8.30;99.90
11140;DHT22;5624;49.388;11.350;2023-11-19T08:01:58;8.40;99.90
11140;DHT22;5624;49.388;11.350;2023-11-19T08:04:23;8.40;99.90
11140;DHT22;5624;49.388;11.350;2023-11-19T08:06:49;8.50;99.90
11140;DHT22;5624;49.388;11.350;2023-11-19T08:09:14;8.50;99.90
11140;DHT22;5624;49.388;11.350;2023-11-19T08:11:43;8.50;99.90
11140;DHT22;5624;49.388;11.350;2023-11-19T08:14:09;8.60;99.90
11140;DHT22;5624;49.388;11.350;2023-11-19T08:16:35;8.60;99.90
11140;DHT22;5624;49.388;11.350;2023-11-19T08:19:02;8.60;99.90
11140;DHT22;5624;49.388;11.350;2023-11-19T08:21:28;8.70;99.90
11140;DHT22;5624;49.388;11.350;2023-11-19T08:23:54;8.70;99.90
11140;DHT22;5624;49.388;11.350;2023-11-19T08:26:19;8.70;99.90
11140;DHT22;5624;49.388;11.350;2023-11-19T08:28:45;8.80;99.90
11140;DHT22;5624;49.388;11.350;2023-11-19T08:31:10;8.80;99.90
11140;DHT22;5624;49.388;11.350;2023-11-19T08:33:36;8.90;99.90
11140;DHT22;5624;49.388;11.350;2023-11-19T08:36:02;8.90;99.90
11140;DHT22;5624;49.388;11.350;2023-11-19T08:38:29;9.00;99.90
11140;DHT22;5624;49.388;11.350;2023-11-19T08:40:54;9.00;99.90
11140;DHT22;5624;49.388;11.350;2023-11-19T08:43:28;9.00;99.90
11140;DHT22;5624;49.388;11.350;2023-11-19T08:45:53;9.00;99.90
11140;DHT22;5624;49.388;11.350;2023-11-19T08:48:19;9.10;99.90
11140;DHT22;5624;49.388;11.350;2023-11-19T08:50:45;9.10;99.90
11140;DHT22;5624;49.388;11.350;2023-11-19T08:53:10;9.10;99.90
11140;DHT22;5624;49.388;11.350;2023-11-19T08:55:36;9.10;99.90
11140;DHT22;5624;49.388;11.350;2023-11-19T08:58:02;9.20;99.90
11140;DHT22;5624;49.388;11.350;2023-11-19T09:00:27;9.20;99.90
11140;DHT22;5624;49.388;11.350;2023-11-19T09:02:53;9.20;99.90
11140;DHT22;5624;49.388;11.350;2023-11-19T09:05:18;9.30;99.90
11140;DHT22;5624;49.388;11.350;2023-11-19T09:07:44;9.30;99.90
11140;DHT22;5624;49.388;11.350;2023-11-19T09:10:10;9.40;99.90
11140;DHT22;5624;49.388;11.350;2023-11-19T09:12:37;9.50;99.90
11140;DHT22;5624;49.388;11.350;2023-11-19T09:15:02;9.50;99.90
11140;DHT22;5624;49.388;11.350;2023-11-19T09:17:28;9.70;99.90
11140;DHT22;5624;49.388;11.350;2023-11-19T09:19:54;9.80;99.90
11140;DHT22;5624;49.388;11.350;2023-11-19T09:22:19;9.90;99.90
11140;DHT22;5624;49.388;11.350;2023-11-19T09:24:45;10.00;99.90
11140;DHT22;5624;49.388;11.350;2023-11-19T09:27:11;10.10;99.90
11140;DHT22;5624;49.388;11.350;2023-11-19T09:29:37;10.20;99.90
11140;DHT22;5624;49.388;11.350;2023-11-19T09:32:02;10.30;99.90
11140;DHT22;5624;49.388;11.350;2023-11-19T09:34:28;10.20;99.90
11140;DHT22;5624;49.388;11.350;2023-11-19T09:36:53;10.20;99.90
11140;DHT22;5624;49.388;11.350;2023-11-19T09:39:19;10.20;99.90
11140;DHT22;5624;49.388;11.350;2023-11-19T09:41:46;10.30;99.90
11140;DHT22;5624;49.388;11.350;2023-11-19T09:44:12;10.40;99.90
11140;DHT22;5624;49.388;11.350;2023-11-19T09:46:39;10.60;99.90
11140;DHT22;5624;49.388;11.350;2023-11-19T09:49:06;10.60;99.90
11140;DHT22;5624;49.388;11.350;2023-11-19T09:51:35;10.70;99.90
11140;DHT22;5624;49.388;11.350;2023-11-19T09:54:01;10.70;99.90
11140;DHT22;5624;49.388;11.350;2023-11-19T09:56:28;10.70;99.90
11140;DHT22;5624;49.388;11.350;2023-11-19T09:58:55;10.80;99.90
11140;DHT22;5624;49.388;11.350;2023-11-19T10:01:20;10.80;99.90
11140;DHT22;5624;49.388;11.350;2023-11-19T10:03:47;10.80;99.90
11140;DHT22;5624;49.388;11.350;2023-11-19T10:06:14;10.90;99.90
11140;DHT22;5624;49.388;11.350;2023-11-19T10:08:41;10.80;99.90
11140;DHT22;5624;49.388;11.350;2023-11-19T10:11:08;10.90;99.90
11140;DHT22;5624;49.388;11.350;2023-11-19T10:13:37;10.90;99.90
11140;DHT22;5624;49.388;11.350;2023-11-19T10:16:17;10.90;99.90
11140;DHT22;5624;49.388;11.350;2023-11-19T10:18:45;10.90;99.90
11140;DHT22;5624;49.388;11.350;2023-11-19T10:21:15;10.90;99.90
11140;DHT22;5624;49.388;11.350;2023-11-19T10:23:56;11.00;99.90
11140;DHT22;5624;49.388;11.350;2023-11-19T10:26:23;11.00;99.90
11140;DHT22;5624;49.388;11.350;2023-11-19T10:28:49;11.00;99.90
11140;DHT22;5624;49.388;11.350;2023-11-19T10:31:15;11.10;99.90
11140;DHT22;5624;49.388;11.350;2023-11-19T10:33:42;11.10;99.90
11140;DHT22;5624;49.388;11.350;2023-11-19T10:36:10;11.20;99.90
11140;DHT22;5624;49.388;11.350;2023-11-19T10:38:38;11.10;99.90
11140;DHT22;5624;49.388;11.350;2023-11-19T10:41:04;11.10;99.90
11140;DHT22;5624;49.388;11.350;2023-11-19T10:43:31;11.10;99.90
11140;DHT22;5624;49.388;11.350;2023-11-19T10:46:13;11.00;99.90
11140;DHT22;5624;49.388;11.350;2023-11-19T10:48:39;11.00;99.90
11140;DHT22;5624;49.388;11.350;2023-11-19T10:51:07;10.90;99.90
11140;DHT22;5624;49.388;11.350;2023-11-19T10:53:38;10.90;99.90
11140;DHT22;5624;49.388;11.350;2023-11-19T10:56:06;10.90;99.90
11140;DHT22;5624;49.388;11.350;2023-11-19T10:58:36;10.80;99.90
11140;DHT22;5624;49.388;11.350;2023-11-19T11:01:11;10.80;99.90
11140;DHT22;5624;49.388;11.350;2023-11-19T11:03:42;10.90;99.90
11140;DHT22;5624;49.388;11.350;2023-11-19T11:06:08;11.00;99.90
11140;DHT22;5624;49.388;11.350;2023-11-19T11:08:36;11.10;99.90
11140;DHT22;5624;49.388;11.350;2023-11-19T11:11:03;11.30;99.90
11140;DHT22;5624;49.388;11.350;2023-11-19T11:13:31;11.60;99.90
11140;DHT22;5624;49.388;11.350;2023-11-19T11:15:57;11.70;99.90
11140;DHT22;5624;49.388;11.350;2023-11-19T11:18:23;11.70;99.90
11140;DHT22;5624;49.388;11.350;2023-11-19T11:20:53;11.90;99.90
11140;DHT22;5624;49.388;11.350;2023-11-19T11:23:37;12.10;99.90
11140;DHT22;5624;49.388;11.350;2023-11-19T11:39:51;11.40;99.90
11140;DHT22;5624;49.388;11.350;2023-11-19T11:47:25;11.60;99.90
11140;DHT22;5624;49.388;11.350;2023-11-19T11:49:51;11.60;99.90
11140;DHT22;5624;49.388;11.350;2023-11-19T11:52:17;11.60;99.90
11140;DHT22;5624;49.388;11.350;2023-11-19T11:54:44;11.60;99.90
11140;DHT22;5624;49.388;11.350;2023-11-19T11:57:10;11.50;99.90
11140;DHT22;5624;49.388;11.350;2023-11-19T11:59:49;11.60;99.90
11140;DHT22;5624;49.388;11.350;2023-11-19T12:02:19;11.60;99.90
11140;DHT22;5624;49.388;11.350;2023-11-19T12:04:49;11.60;99.90
11140;DHT22;5624;49.388;11.350;2023-11-19T12:07:23;11.60;99.90
11140;DHT22;5624;49.388;11.350;2023-11-19T12:10:08;11.50;99.90
11140;DHT22;5624;49.388;11.350;2023-11-19T12:12:36;11.50;99.90
11140;DHT22;5624;49.388;11.350;2023-11-19T12:15:09;11.50;99.90
11140;DHT22;5624;49.388;11.350;2023-11-19T12:17:47;11.40;99.90
11140;DHT22;5624;49.388;11.350;2023-11-19T12:20:17;11.40;99.90
11140;DHT22;5624;49.388;11.350;2023-11-19T12:22:44;11.40;99.90
11140;DHT22;5624;49.388;11.350;2023-11-19T12:25:11;11.40;99.90
11140;DHT22;5624;49.388;11.350;2023-11-19T12:30:12;11.30;99.90
11140;DHT22;5624;49.388;11.350;2023-11-19T12:35:04;11.30;99.90
11140;DHT22;5624;49.388;11.350;2023-11-19T12:37:29;11.30;99.90
11140;DHT22;5624;49.388;11.350;2023-11-19T12:39:57;11.20;99.90
11140;DHT22;5624;49.388;11.350;2023-11-19T12:42:35;11.20;99.90
11140;DHT22;5624;49.388;11.350;2023-11-19T12:45:01;11.20;99.90
11140;DHT22;5624;49.388;11.350;2023-11-19T12:47:27;11.10;99.90
11140;DHT22;5624;49.388;11.350;2023-11-19T12:49:58;11.10;99.90
11140;DHT22;5624;49.388;11.350;2023-11-19T12:52:24;11.10;99.90
11140;DHT22;5624;49.388;11.350;2023-11-19T12:54:50;11.20;99.90
11140;DHT22;5624;49.388;11.350;2023-11-19T12:57:16;11.20;99.90
11140;DHT22;5624;49.388;11.350;2023-11-19T12:59:54;11.20;99.90
11140;DHT22;5624;49.388;11.350;2023-11-19T13:02:21;11.30;99.90
11140;DHT22;5624;49.388;11.350;2023-11-19T13:04:47;11.40;99.90
11140;DHT22;5624;49.388;11.350;2023-11-19T13:07:12;11.60;99.90
11140;DHT22;5624;49.388;11.350;2023-11-19T13:09:38;11.60;99.90
11140;DHT22;5624;49.388;11.350;2023-11-19T13:12:16;11.70;99.90
11140;DHT22;5624;49.388;11.350;2023-11-19T13:14:42;11.80;99.00
11140;DHT22;5624;49.388;11.350;2023-11-19T13:17:13;11.80;98.00
11140;DHT22;5624;49.388;11.350;2023-11-19T13:19:39;11.80;96.90
11140;DHT22;5624;49.388;11.350;2023-11-19T13:22:04;11.90;95.80
11140;DHT22;5624;49.388;11.350;2023-11-19T13:24:30;12.10;94.00
11140;DHT22;5624;49.388;11.350;2023-11-19T13:26:55;12.20;93.70
11140;DHT22;5624;49.388;11.350;2023-11-19T13:29:21;12.20;93.20
11140;DHT22;5624;49.388;11.350;2023-11-19T13:31:46;12.20;93.20
11140;DHT22;5624;49.388;11.350;2023-11-19T13:34:12;12.20;92.40
11140;DHT22;5624;49.388;11.350;2023-11-19T13:36:38;12.10;92.10
11140;DHT22;5624;49.388;11.350;2023-11-19T13:39:04;12.00;92.20
11140;DHT22;5624;49.388;11.350;2023-11-19T13:41:29;12.00;93.20
11140;DHT22;5624;49.388;11.350;2023-11-19T13:43:55;11.80;92.90
11140;DHT22;5624;49.388;11.350;2023-11-19T13:46:20;11.70;93.80
11140;DHT22;5624;49.388;11.350;2023-11-19T13:48:46;11.60;92.80
11140;DHT22;5624;49.388;11.350;2023-11-19T13:51:12;11.60;93.00
11140;DHT22;5624;49.388;11.350;2023-11-19T13:53:37;11.50;94.20
11140;DHT22;5624;49.388;11.350;2023-11-19T13:56:03;11.50;94.80
11140;DHT22;5624;49.388;11.350;2023-11-19T13:58:28;11.40;94.90
11140;DHT22;5624;49.388;11.350;2023-11-19T14:00:54;11.40;95.00
11140;DHT22;5624;49.388;11.350;2023-11-19T14:03:20;11.40;95.30
11140;DHT22;5624;49.388;11.350;2023-11-19T14:05:45;11.30;95.40
11140;DHT22;5624;49.388;11.350;2023-11-19T14:08:11;11.40;95.70
11140;DHT22;5624;49.388;11.350;2023-11-19T14:10:38;11.40;95.70
11140;DHT22;5624;49.388;11.350;2023-11-19T14:13:07;11.50;95.20
11140;DHT22;5624;49.388;11.350;2023-11-19T14:15:33;11.50;95.20
11140;DHT22;5624;49.388;11.350;2023-11-19T14:17:58;11.50;95.30
11140;DHT22;5624;49.388;11.350;2023-11-19T14:20:24;11.50;94.50
11140;DHT22;5624;49.388;11.350;2023-11-19T14:22:51;11.60;93.70
11140;DHT22;5624;49.388;11.350;2023-11-19T14:25:18;11.60;93.10
11140;DHT22;5624;49.388;11.350;2023-11-19T14:27:44;11.70;92.20
11140;DHT22;5624;49.388;11.350;2023-11-19T14:30:12;11.80;90.60
11140;DHT22;5624;49.388;11.350;2023-11-19T14:32:39;11.80;89.00
11140;DHT22;5624;49.388;11.350;2023-11-19T14:35:06;11.80;89.10
11140;DHT22;5624;49.388;11.350;2023-11-19T14:37:32;11.70;89.10
11140;DHT22;5624;49.388;11.350;2023-11-19T14:39:57;11.60;88.80
11140;DHT22;5624;49.388;11.350;2023-11-19T14:42:23;11.60;89.00
11140;DHT22;5624;49.388;11.350;2023-11-19T14:48:12;11.50;89.20
11140;DHT22;5624;49.388;11.350;2023-11-19T14:50:37;11.50;88.70
11140;DHT22;5624;49.388;11.350;2023-11-19T14:53:03;11.50;88.50
11140;DHT22;5624;49.388;11.350;2023-11-19T14:55:28;11.50;87.20
11140;DHT22;5624;49.388;11.350;2023-11-19T14:57:54;11.50;87.90
11140;DHT22;5624;49.388;11.350;2023-11-19T15:00:21;11.50;87.40
11140;DHT22;5624;49.388;11.350;2023-11-19T15:02:46;11.60;86.70
11140;DHT22;5624;49.388;11.350;2023-11-19T15:05:12;11.60;87.20
11140;DHT22;5624;49.388;11.350;2023-11-19T15:07:39;11.40;87.70
11140;DHT22;5624;49.388;11.350;2023-11-19T15:10:06;11.40;88.70
11140;DHT22;5624;49.388;11.350;2023-11-19T15:12:38;11.40;88.60
11140;DHT22;5624;49.388;11.350;2023-11-19T15:15:09;11.50;87.50
11140;DHT22;5624;49.388;11.350;2023-11-19T15:17:35;11.50;87.40
11140;DHT22;5624;49.388;11.350;2023-11-19T15:20:02;11.40;88.20
11140;DHT22;5624;49.388;11.350;2023-11-19T15:22:28;11.40;88.50
11140;DHT22;5624;49.388;11.350;2023-11-19T15:24:53;11.30;88.70
11140;DHT22;5624;49.388;11.350;2023-11-19T15:27:19;11.20;89.40
11140;DHT22;5624;49.388;11.350;2023-11-19T15:29:45;11.20;88.30
11140;DHT22;5624;49.388;11.350;2023-11-19T15:32:10;11.20;88.20
11140;DHT22;5624;49.388;11.350;2023-11-19T15:34:36;11.10;89.10
11140;DHT22;5624;49.388;11.350;2023-11-19T15:37:03;10.90;90.10
11140;DHT22;5624;49.388;11.350;2023-11-19T15:39:29;10.90;90.40
11140;DHT22;5624;49.388;11.350;2023-11-19T15:41:55;10.90;90.00
11140;DHT22;5624;49.388;11.350;2023-11-19T15:44:23;10.80;90.20
11140;DHT22;5624;49.388;11.350;2023-11-19T15:46:49;10.80;90.10
11140;DHT22;5624;49.388;11.350;2023-11-19T15:49:15;10.70;91.20
11140;DHT22;5624;49.388;11.350;2023-11-19T15:51:41;10.70;91.60
11140;DHT22;5624;49.388;11.350;2023-11-19T15:54:07;10.70;91.10
11140;DHT22;5624;49.388;11.350;2023-11-19T15:56:33;10.70;91.20
11140;DHT22;5624;49.388;11.350;2023-11-19T15:59:23;10.60;91.60
11140;DHT22;5624;49.388;11.350;2023-11-19T16:01:49;10.50;91.80
11140;DHT22;5624;49.388;11.350;2023-11-19T16:04:14;10.40;92.20
11140;DHT22;5624;49.388;11.350;2023-11-19T16:06:40;10.40;92.30